This is the latest recevied weather packets stored in our database for station/object EPGD. If no packets are shown the sender has not sent any weather packets the latest 10 day(s).
| Time | Temp. | Humidity | Pressure | Rain* | Wind** | Luminosity | Snow |
|---|---|---|---|---|---|---|---|
| 1788267904 | 18.89° C | 72% | 1013 hPa | - | - | - | - |
| 1788266104 | 17.78° C | 72% | 1012 hPa | - | - | - | - |
| 1788262504 | 17.78° C | 72% | 1012 hPa | - | - | - | - |
| 1788260704 | 17.78° C | 77% | 1012 hPa | - | - | - | - |
| 1788258904 | 17.78° C | 72% | 1012 hPa | - | - | - | - |
| 1788257104 | 16.67° C | 82% | 1012 hPa | - | - | - | - |
| 1788255304 | 15.56° C | 82% | 1012 hPa | - | - | - | - |
| 1788253504 | 16.67° C | 77% | 1012 hPa | - | - | - | - |
| 1788251704 | 15.56° C | 82% | 1012 hPa | - | - | - | - |
| 1788249904 | 15.56° C | 82% | 1011 hPa | - | - | - | - |
| 1788248104 | 16.67° C | 77% | 1011 hPa | - | - | - | - |
| 1788246304 | 15.56° C | 82% | 1011 hPa | - | - | - | - |
| 1788244504 | 15.56° C | 82% | 1010 hPa | - | - | - | - |
| 1788242704 | 15.56° C | 87% | 1010 hPa | - | - | - | - |
| 1788240904 | 15° C | 87% | 1010 hPa | - | - | - | - |
| 1788239104 | 15° C | 93% | 1010 hPa | - | - | - | - |
| 1788213904 | 16.67° C | 88% | 1011 hPa | - | - | - | - |
| 1788212104 | 16.67° C | 88% | 1011 hPa | - | - | - | - |
| 1788210304 | 15.56° C | 93% | 1011 hPa | - | - | - | - |
| 1788208504 | 15.56° C | 93% | 1011 hPa | - | - | - | - |
| 1788206704 | 15.56° C | 100% | 1011 hPa | - | - | - | - |
| 1788204904 | 15.56° C | 100% | 1011 hPa | - | - | - | - |
| 1788203104 | 15.56° C | 93% | 1011 hPa | - | - | - | - |
| 1788201303 | 16.67° C | 93% | 1011 hPa | - | - | - | - |
| 1788199504 | 16.67° C | 93% | 1011 hPa | - | - | - | - |
* Rain since midnight (hover to see other rain measurements)
** Current wind speed in m/s (hover to see current wind gust speed)